createdAt,value
2022-09-20T00:00:45.377Z,2.40
2022-09-20T00:02:18.116Z,2.33
2022-09-20T00:03:53.889Z,2.50
2022-09-20T00:05:25.785Z,2.20
2022-09-20T00:06:58.481Z,2.10
2022-09-20T00:08:31.795Z,2.43
2022-09-20T00:10:05.019Z,2.27
2022-09-20T00:11:38.151Z,2.13
2022-09-20T00:13:11.907Z,2.00
2022-09-20T00:14:44.589Z,2.10
2022-09-20T00:16:20.914Z,2.00
2022-09-20T00:17:53.655Z,1.90
2022-09-20T00:19:27.797Z,2.00
2022-09-20T00:21:00.483Z,2.37
2022-09-20T00:22:33.157Z,2.37
2022-09-20T00:24:06.816Z,2.13
2022-09-20T00:25:38.818Z,2.10
2022-09-20T00:27:11.808Z,2.20
2022-09-20T00:28:46.883Z,2.10
2022-09-20T00:30:19.715Z,2.20
2022-09-20T00:31:52.452Z,2.03
2022-09-20T00:33:46.073Z,1.83
2022-09-20T00:35:20.109Z,2.20
2022-09-20T00:36:51.812Z,2.00
2022-09-20T00:38:24.467Z,2.00
2022-09-20T00:39:57.154Z,2.30
2022-09-20T00:41:30.240Z,2.20
2022-09-20T00:43:02.937Z,1.90
2022-09-20T00:44:51.484Z,1.98
2022-09-20T00:46:28.979Z,1.70
2022-09-20T00:48:06.039Z,2.20
2022-09-20T00:49:38.433Z,2.23
2022-09-20T00:51:18.829Z,2.00
2022-09-20T00:52:56.680Z,1.90
2022-09-20T00:54:31.384Z,2.33
2022-09-20T00:56:07.159Z,2.33
2022-09-20T00:57:40.612Z,2.30
2022-09-20T00:59:17.177Z,2.10
2022-09-20T01:00:50.993Z,2.07
2022-09-20T01:02:28.690Z,2.33
2022-09-20T01:04:02.343Z,2.60
2022-09-20T01:05:36.803Z,2.03
2022-09-20T01:07:14.735Z,2.10
2022-09-20T01:08:51.421Z,2.00
2022-09-20T01:10:24.234Z,2.20
2022-09-20T01:11:58.069Z,2.33
2022-09-20T01:13:31.000Z,2.27
2022-09-20T01:15:06.051Z,2.13
2022-09-20T01:16:39.144Z,2.00
2022-09-20T01:18:13.057Z,2.13
2022-09-20T01:19:53.860Z,2.10
2022-09-20T01:21:28.222Z,2.10
2022-09-20T01:23:14.044Z,2.30
2022-09-20T01:24:53.065Z,2.50
2022-09-20T01:26:54.135Z,2.27
2022-09-20T01:28:29.823Z,2.43
2022-09-20T01:30:08.038Z,2.10
2022-09-20T01:31:45.605Z,2.40
2022-09-20T01:33:28.694Z,2.30
2022-09-20T01:35:02.669Z,2.40
2022-09-20T01:36:40.044Z,2.33
2022-09-20T01:38:28.917Z,2.50
2022-09-20T01:40:10.550Z,2.20
2022-09-20T01:41:46.529Z,2.33
2022-09-20T01:43:26.715Z,2.47
2022-09-20T01:45:04.277Z,2.53
2022-09-20T01:46:37.825Z,2.10
2022-09-20T01:48:18.009Z,2.10
2022-09-20T01:49:58.008Z,2.20
2022-09-20T01:51:49.605Z,2.57
2022-09-20T01:53:49.813Z,1.90
2022-09-20T01:55:53.796Z,2.10
2022-09-20T01:57:47.077Z,2.07
2022-09-20T01:59:39.437Z,2.30
2022-09-20T02:01:51.814Z,2.40
2022-09-20T02:03:56.625Z,2.60
2022-09-20T02:05:56.568Z,2.30
2022-09-20T02:07:59.371Z,2.38
2022-09-20T02:09:52.428Z,2.10
2022-09-20T02:11:33.067Z,2.80
2022-09-20T02:13:09.919Z,2.22
2022-09-20T02:14:53.616Z,2.57
2022-09-20T02:16:50.562Z,2.53
2022-09-20T02:18:41.556Z,2.43
2022-09-20T02:20:26.720Z,2.75
2022-09-20T02:22:20.723Z,2.67
2022-09-20T02:24:04.149Z,2.30
2022-09-20T02:26:10.979Z,2.20
2022-09-20T02:28:04.084Z,2.50
2022-09-20T02:29:45.803Z,2.45
2022-09-20T02:31:32.714Z,2.60
2022-09-20T02:33:36.735Z,2.07
2022-09-20T02:35:20.655Z,2.20
2022-09-20T02:37:10.821Z,2.10
2022-09-20T02:38:52.581Z,2.00
2022-09-20T02:40:44.727Z,2.50
2022-09-20T02:42:21.919Z,2.20
2022-09-20T02:44:00.249Z,2.20
2022-09-20T02:45:41.109Z,2.30
2022-09-20T02:47:22.612Z,2.53
2022-09-20T02:49:03.481Z,2.70
2022-09-20T02:50:43.083Z,2.53
2022-09-20T02:52:27.830Z,2.50
2022-09-20T02:54:13.840Z,2.10
2022-09-20T02:55:57.165Z,1.90
2022-09-20T02:57:42.637Z,2.50
2022-09-20T02:59:26.572Z,2.20
2022-09-20T03:01:05.132Z,2.30
2022-09-20T03:02:50.815Z,1.87
2022-09-20T03:04:38.379Z,2.00
2022-09-20T03:06:21.859Z,2.08
2022-09-20T03:08:07.881Z,2.30
2022-09-20T03:09:48.087Z,2.00
2022-09-20T03:11:32.619Z,2.20
2022-09-20T03:13:30.690Z,1.90
2022-09-20T03:15:17.005Z,2.20
2022-09-20T03:17:03.730Z,2.60
2022-09-20T03:18:48.087Z,2.10
2022-09-20T03:20:31.088Z,2.60
2022-09-20T03:22:17.527Z,2.50
2022-09-20T03:24:00.765Z,2.35
2022-09-20T03:25:52.607Z,2.20
2022-09-20T03:27:32.699Z,2.30
2022-09-20T03:29:09.580Z,1.92
2022-09-20T03:30:53.969Z,2.22
2022-09-20T03:32:40.941Z,2.13
2022-09-20T03:34:29.803Z,2.45
2022-09-20T03:36:18.145Z,2.57
2022-09-20T03:38:02.469Z,2.00
2022-09-20T03:40:09.623Z,2.60
2022-09-20T03:42:04.161Z,2.33
2022-09-20T03:43:49.955Z,1.90
2022-09-20T03:45:46.423Z,2.05
2022-09-20T03:47:33.377Z,2.20
2022-09-20T03:49:41.076Z,1.80
2022-09-20T03:51:23.487Z,2.00
2022-09-20T03:53:06.371Z,2.40
2022-09-20T03:55:04.915Z,1.95
2022-09-20T03:57:30.961Z,2.17
2022-09-20T03:59:19.017Z,2.50
2022-09-20T04:01:14.732Z,2.15
2022-09-20T04:03:28.368Z,2.40
2022-09-20T04:05:04.137Z,2.03
2022-09-20T04:06:59.118Z,2.28
2022-09-20T04:09:02.204Z,2.45
2022-09-20T04:10:44.145Z,2.53
2022-09-20T04:12:27.037Z,2.40
2022-09-20T04:14:11.535Z,2.63
2022-09-20T04:15:54.451Z,2.60
2022-09-20T04:17:39.724Z,2.22
2022-09-20T04:19:18.889Z,2.65
2022-09-20T04:20:56.240Z,2.40
2022-09-20T04:22:30.937Z,2.38
2022-09-20T04:24:11.797Z,2.38
2022-09-20T04:25:48.687Z,2.45
2022-09-20T04:27:25.640Z,2.33
2022-09-20T04:29:08.611Z,2.30
2022-09-20T04:30:43.952Z,2.40
2022-09-20T04:32:22.864Z,2.42
2022-09-20T04:33:57.408Z,2.63
2022-09-20T04:35:59.809Z,2.42
2022-09-20T04:37:38.323Z,2.78
2022-09-20T04:39:19.438Z,3.03
2022-09-20T04:41:16.470Z,2.53
2022-09-20T04:43:35.438Z,2.25
2022-09-20T04:45:51.278Z,2.28
2022-09-20T04:47:50.611Z,2.50
2022-09-20T04:49:53.508Z,2.53
2022-09-20T04:51:51.128Z,2.58
2022-09-20T04:53:53.859Z,2.80
2022-09-20T04:55:53.093Z,2.58
2022-09-20T04:57:44.244Z,2.90
2022-09-20T04:59:30.462Z,2.25
2022-09-20T05:01:45.838Z,2.47
2022-09-20T05:03:54.199Z,2.78
2022-09-20T05:05:56.236Z,2.40
2022-09-20T05:08:00.447Z,2.75
2022-09-20T05:09:55.571Z,2.40
2022-09-20T05:11:47.079Z,2.33
2022-09-20T05:13:39.252Z,2.42
2022-09-20T05:15:24.337Z,2.38
2022-09-20T05:17:21.526Z,2.55
2022-09-20T05:19:09.096Z,2.50
2022-09-20T05:20:51.925Z,2.67
2022-09-20T05:22:47.414Z,2.83
2022-09-20T05:24:52.694Z,3.10
2022-09-20T05:26:38.646Z,3.15
2022-09-20T05:28:19.140Z,3.00
2022-09-20T05:29:58.486Z,3.10
2022-09-20T05:31:40.352Z,2.92
2022-09-20T05:33:23.757Z,3.05
2022-09-20T05:35:01.172Z,2.75
2022-09-20T05:36:49.731Z,2.88
2022-09-20T05:38:30.684Z,3.58
2022-09-20T05:40:14.071Z,3.10
2022-09-20T05:41:54.500Z,3.10
2022-09-20T05:43:32.185Z,3.10
2022-09-20T05:45:20.025Z,3.78
2022-09-20T05:47:00.303Z,3.28
2022-09-20T05:48:41.209Z,3.20
2022-09-20T05:50:34.213Z,2.83
2022-09-20T05:52:26.619Z,2.97
2022-09-20T05:54:19.587Z,2.55
2022-09-20T05:56:05.108Z,2.88
2022-09-20T05:57:56.405Z,2.78
2022-09-20T05:59:44.831Z,3.03
2022-09-20T06:01:24.190Z,3.10
2022-09-20T06:03:06.675Z,2.78
2022-09-20T06:04:46.531Z,2.72
2022-09-20T06:06:32.378Z,3.13
2022-09-20T06:08:30.573Z,3.22
2022-09-20T06:10:34.252Z,2.70
2022-09-20T06:12:26.997Z,2.45
2022-09-20T06:14:10.916Z,2.60
2022-09-20T06:15:50.340Z,2.75
2022-09-20T06:17:29.187Z,2.92
2022-09-20T06:19:12.712Z,3.35
2022-09-20T06:20:52.917Z,3.08
2022-09-20T06:22:30.864Z,2.90
2022-09-20T06:24:05.485Z,2.70
2022-09-20T06:25:43.409Z,3.10
2022-09-20T06:27:22.114Z,3.33
2022-09-20T06:29:00.537Z,3.10
2022-09-20T06:30:37.761Z,3.20
2022-09-20T06:32:10.616Z,3.05
2022-09-20T06:33:50.073Z,3.05
2022-09-20T06:35:26.421Z,2.88
2022-09-20T06:37:27.257Z,2.78
2022-09-20T06:39:31.175Z,3.10
2022-09-20T06:41:27.671Z,2.55
2022-09-20T06:43:03.933Z,3.43
2022-09-20T06:44:38.064Z,3.67
2022-09-20T06:46:12.940Z,3.20
2022-09-20T06:47:45.968Z,3.27
2022-09-20T06:49:19.201Z,3.10
2022-09-20T06:50:52.310Z,3.20
2022-09-20T06:52:25.879Z,3.43
2022-09-20T06:53:58.641Z,2.80
2022-09-20T06:55:37.301Z,2.90
2022-09-20T06:57:12.881Z,3.58
2022-09-20T06:58:47.301Z,3.23
2022-09-20T07:00:20.375Z,3.03
2022-09-20T07:01:53.141Z,3.33
2022-09-20T07:03:25.885Z,2.97
2022-09-20T07:04:59.191Z,3.40
2022-09-20T07:06:31.855Z,3.40
2022-09-20T07:08:04.665Z,3.03
2022-09-20T07:09:37.383Z,4.33
2022-09-20T07:11:15.729Z,3.43
2022-09-20T07:12:48.943Z,3.10
2022-09-20T07:14:23.592Z,3.20
2022-09-20T07:16:02.137Z,2.90
2022-09-20T07:17:35.178Z,2.97
2022-09-20T07:19:08.100Z,2.83
2022-09-20T07:20:41.711Z,3.03
2022-09-20T07:22:14.428Z,2.87
2022-09-20T07:23:48.517Z,2.63
2022-09-20T07:25:21.562Z,3.13
2022-09-20T07:27:01.961Z,2.90
2022-09-20T07:28:35.726Z,2.93
2022-09-20T07:30:12.513Z,3.30
2022-09-20T07:31:45.232Z,3.10
2022-09-20T07:33:21.404Z,2.73
2022-09-20T07:34:54.113Z,2.50
2022-09-20T07:36:26.941Z,2.60
2022-09-20T07:38:00.024Z,2.47
2022-09-20T07:39:32.768Z,2.70
2022-09-20T07:41:05.849Z,2.83
2022-09-20T07:42:38.918Z,2.30
2022-09-20T07:44:25.173Z,2.60
2022-09-20T07:46:00.099Z,2.33
2022-09-20T07:47:35.213Z,2.57
2022-09-20T07:49:08.631Z,2.50
2022-09-20T07:50:41.315Z,2.47
2022-09-20T07:52:14.653Z,2.60
2022-09-20T07:53:47.376Z,2.37
2022-09-20T07:55:20.089Z,2.43
2022-09-20T07:56:52.777Z,2.43
2022-09-20T07:58:25.767Z,2.27
2022-09-20T07:59:58.452Z,2.37
2022-09-20T08:01:32.556Z,2.10
2022-09-20T08:03:05.966Z,2.97
2022-09-20T08:04:38.684Z,2.63
2022-09-20T08:06:14.475Z,2.53
2022-09-20T08:07:47.169Z,2.80
2022-09-20T08:09:20.188Z,2.87
2022-09-20T08:10:55.057Z,3.10
2022-09-20T08:14:21.462Z,3.03
2022-09-20T08:16:02.737Z,3.30
2022-09-20T08:17:36.866Z,3.33
2022-09-20T08:19:12.644Z,3.70
2022-09-20T08:20:45.353Z,3.73
2022-09-20T08:22:18.068Z,3.50
2022-09-20T08:23:51.303Z,3.60
2022-09-20T08:25:24.762Z,3.23
2022-09-20T08:26:57.839Z,3.80
2022-09-20T08:28:31.419Z,3.17
2022-09-20T08:30:05.008Z,3.23
2022-09-20T08:31:42.116Z,3.47
2022-09-20T08:33:16.271Z,3.10
2022-09-20T08:34:49.597Z,3.50
2022-09-20T08:36:24.916Z,3.50
2022-09-20T08:39:57.299Z,3.40
2022-09-20T08:39:58.329Z,3.50
2022-09-20T08:41:34.915Z,3.27
2022-09-20T08:43:09.782Z,3.17
2022-09-20T08:45:00.049Z,3.53
2022-09-20T08:46:35.716Z,3.40
2022-09-20T08:48:15.348Z,2.80
2022-09-20T08:49:56.411Z,3.27
2022-09-20T08:51:34.431Z,3.10
2022-09-20T08:53:07.149Z,3.10
2022-09-20T08:54:41.549Z,2.40
2022-09-20T08:56:14.587Z,2.73
2022-09-20T08:57:50.803Z,3.00
2022-09-20T08:59:25.915Z,2.93
2022-09-20T09:01:00.045Z,2.67
2022-09-20T09:02:34.222Z,2.70
2022-09-20T09:04:14.341Z,2.60
2022-09-20T09:05:50.289Z,2.50
2022-09-20T09:07:24.348Z,2.37
2022-09-20T09:09:00.409Z,2.40
2022-09-20T09:10:45.403Z,2.20
2022-09-20T09:12:22.907Z,2.67
2022-09-20T09:14:01.361Z,2.67
2022-09-20T09:15:36.472Z,2.40
2022-09-20T09:17:11.575Z,2.70
2022-09-20T09:18:45.920Z,2.47
2022-09-20T09:20:21.649Z,2.57
2022-09-20T09:22:00.493Z,2.10
2022-09-20T09:23:41.219Z,2.87
2022-09-20T09:25:25.727Z,2.50
2022-09-20T09:27:09.465Z,2.53
2022-09-20T09:28:42.213Z,2.60
2022-09-20T09:30:21.909Z,2.50
2022-09-20T09:31:55.401Z,2.50
2022-09-20T09:33:29.569Z,2.70
2022-09-20T09:35:25.712Z,2.43
2022-09-20T09:37:00.092Z,2.50
2022-09-20T09:38:34.889Z,2.70
2022-09-20T09:40:13.192Z,2.63
2022-09-20T09:41:46.504Z,2.20
2022-09-20T09:43:23.360Z,2.30
2022-09-20T09:45:11.741Z,2.40
2022-09-20T09:46:44.506Z,2.60
2022-09-20T09:48:22.404Z,2.60
2022-09-20T09:50:01.688Z,2.53
2022-09-20T09:51:36.514Z,2.30
2022-09-20T09:53:15.137Z,2.93
2022-09-20T09:54:50.735Z,2.60
2022-09-20T09:56:40.960Z,2.60
2022-09-20T09:58:24.250Z,2.40
2022-09-20T10:00:21.923Z,2.50
2022-09-20T10:02:04.309Z,2.00
2022-09-20T10:03:48.616Z,2.40
2022-09-20T10:05:25.814Z,2.67
2022-09-20T10:07:07.229Z,2.33
2022-09-20T10:08:51.297Z,2.70
2022-09-20T10:10:32.878Z,2.63
2022-09-20T10:12:19.629Z,2.20
2022-09-20T10:14:03.337Z,2.43
2022-09-20T10:15:42.230Z,2.30
2022-09-20T10:17:31.143Z,2.60
2022-09-20T10:19:13.880Z,2.60
2022-09-20T10:20:57.406Z,2.30
2022-09-20T10:22:40.520Z,2.30
2022-09-20T10:24:30.161Z,2.43
2022-09-20T10:26:10.845Z,2.93
2022-09-20T10:27:58.732Z,2.70
2022-09-20T10:29:45.500Z,2.53
2022-09-20T10:31:33.937Z,2.83
2022-09-20T10:33:18.464Z,2.83
2022-09-20T10:35:08.576Z,2.80
2022-09-20T10:36:48.970Z,2.90
2022-09-20T10:38:26.647Z,2.60
2022-09-20T10:40:10.321Z,2.50
2022-09-20T10:42:09.309Z,2.50
2022-09-20T10:43:59.279Z,2.67
2022-09-20T10:47:40.423Z,2.73
2022-09-20T10:49:24.024Z,2.87
2022-09-20T10:51:02.097Z,2.90
2022-09-20T10:52:55.527Z,3.17
2022-09-20T10:54:43.901Z,2.83
2022-09-20T10:56:28.489Z,2.70
2022-09-20T10:58:30.445Z,2.70
2022-09-20T11:00:09.883Z,2.30
2022-09-20T11:01:49.275Z,2.20
2022-09-20T11:03:37.967Z,2.50
2022-09-20T11:05:36.627Z,2.40
2022-09-20T11:07:14.963Z,2.50
2022-09-20T11:08:51.587Z,2.30
2022-09-20T11:10:29.408Z,2.40
2022-09-20T11:12:12.360Z,2.40
2022-09-20T11:13:51.888Z,2.40
2022-09-20T11:15:28.691Z,2.17
2022-09-20T11:17:08.397Z,2.50
2022-09-20T11:18:47.371Z,2.77
2022-09-20T11:20:22.927Z,2.40
2022-09-20T11:21:59.829Z,2.07
2022-09-20T11:23:44.003Z,2.60
2022-09-20T11:25:23.101Z,2.17
2022-09-20T11:27:01.659Z,2.13
2022-09-20T11:28:40.793Z,2.33
2022-09-20T11:30:18.233Z,2.30
2022-09-20T11:31:56.080Z,2.43
2022-09-20T11:33:31.694Z,3.13
2022-09-20T11:35:15.156Z,2.70
2022-09-20T11:36:54.444Z,2.80
2022-09-20T11:38:34.102Z,2.70
2022-09-20T11:40:14.491Z,2.70
2022-09-20T11:41:48.079Z,2.80
2022-09-20T11:43:21.573Z,3.00
2022-09-20T11:44:56.342Z,3.10
2022-09-20T11:46:33.109Z,3.60
2022-09-20T11:48:15.205Z,3.90
2022-09-20T11:50:03.440Z,3.10
2022-09-20T11:52:12.308Z,3.67
2022-09-20T11:54:08.646Z,3.37
2022-09-20T11:55:48.205Z,3.00
2022-09-20T11:57:21.331Z,3.03
2022-09-20T11:58:55.851Z,3.00
2022-09-20T12:00:35.173Z,2.83
2022-09-20T12:02:19.007Z,2.80
2022-09-20T12:04:08.732Z,2.63
2022-09-20T12:05:47.216Z,2.60
2022-09-20T12:07:23.827Z,2.50
2022-09-20T12:08:57.647Z,2.60
2022-09-20T12:10:34.060Z,2.80
2022-09-20T12:12:32.501Z,2.40
2022-09-20T12:14:08.605Z,2.77
2022-09-20T12:15:43.788Z,2.37
2022-09-20T12:17:50.015Z,2.67
2022-09-20T12:19:40.985Z,2.40
2022-09-20T12:21:17.041Z,2.83
2022-09-20T12:22:50.221Z,2.47
2022-09-20T12:24:23.622Z,3.00
2022-09-20T12:26:03.691Z,3.27
2022-09-20T12:27:58.267Z,2.80
2022-09-20T12:30:09.693Z,2.57
2022-09-20T12:31:49.310Z,2.33
2022-09-20T12:33:22.137Z,2.30
2022-09-20T12:34:53.901Z,2.67
2022-09-20T12:36:28.284Z,3.00
2022-09-20T12:38:17.703Z,2.73
2022-09-20T12:39:56.305Z,2.53
2022-09-20T12:41:29.835Z,2.27
2022-09-20T12:43:01.865Z,2.43
2022-09-20T12:44:38.677Z,2.63
2022-09-20T12:46:24.157Z,2.60
2022-09-20T12:47:58.353Z,2.30
2022-09-20T12:50:00.561Z,2.30
2022-09-20T12:52:00.364Z,2.30
2022-09-20T12:53:33.146Z,2.50
2022-09-20T12:55:10.261Z,2.30
2022-09-20T12:56:46.626Z,2.30
2022-09-20T12:58:51.413Z,2.03
2022-09-20T13:00:38.785Z,2.00
2022-09-20T13:02:42.345Z,1.67
2022-09-20T13:04:57.268Z,2.03
2022-09-20T13:06:31.280Z,2.13
2022-09-20T13:08:16.026Z,1.83
2022-09-20T13:09:49.317Z,1.70
2022-09-20T13:11:25.149Z,1.70
2022-09-20T13:13:12.074Z,1.57
2022-09-20T13:14:45.896Z,1.70
2022-09-20T13:16:23.753Z,1.57
2022-09-20T13:18:00.253Z,1.63
2022-09-20T13:19:38.923Z,1.73
2022-09-20T13:21:11.952Z,1.90
2022-09-20T13:22:47.055Z,1.50
2022-09-20T13:24:21.528Z,1.60
2022-09-20T13:25:57.492Z,1.80
2022-09-20T13:27:35.099Z,1.60
2022-09-20T13:29:10.337Z,1.80
2022-09-20T13:30:43.176Z,1.73
2022-09-20T13:32:23.522Z,1.60
2022-09-20T13:33:56.747Z,1.80
2022-09-20T13:35:32.367Z,1.73
2022-09-20T13:37:05.107Z,1.90
2022-09-20T13:38:39.583Z,1.70
2022-09-20T13:40:18.889Z,1.97
2022-09-20T13:41:51.892Z,1.80
2022-09-20T13:43:29.083Z,1.43
2022-09-20T13:45:04.602Z,1.60
2022-09-20T13:46:45.381Z,1.80
2022-09-20T13:48:18.153Z,1.77
2022-09-20T13:49:51.431Z,1.50
2022-09-20T13:51:26.409Z,1.50
2022-09-20T13:53:02.002Z,1.40
2022-09-20T13:54:36.103Z,1.60
2022-09-20T13:56:11.940Z,1.60
2022-09-20T13:57:47.973Z,1.53
2022-09-20T13:59:20.806Z,1.43
2022-09-20T14:00:56.110Z,1.30
2022-09-20T14:02:31.965Z,1.57
2022-09-20T14:04:08.986Z,1.30
2022-09-20T14:05:47.760Z,1.20
2022-09-20T14:07:20.745Z,1.37
2022-09-20T14:08:53.544Z,1.20
2022-09-20T14:10:34.119Z,1.03
2022-09-20T14:12:07.835Z,1.17
2022-09-20T14:13:43.066Z,1.37
2022-09-20T14:15:16.752Z,1.30
2022-09-20T14:16:50.596Z,1.47
2022-09-20T14:18:24.471Z,1.23
2022-09-20T14:19:58.218Z,1.20
2022-09-20T14:21:34.582Z,1.20
2022-09-20T14:23:07.296Z,1.40
2022-09-20T14:24:40.076Z,1.20
2022-09-20T14:26:25.891Z,1.10
2022-09-20T14:28:16.143Z,1.43
2022-09-20T14:29:50.396Z,1.23
2022-09-20T14:31:26.249Z,1.20
2022-09-20T14:32:59.952Z,1.50
2022-09-20T14:34:36.195Z,1.30
2022-09-20T14:36:15.862Z,1.50
2022-09-20T14:37:51.189Z,1.60
2022-09-20T14:39:23.959Z,1.40
2022-09-20T14:40:56.719Z,1.30
2022-09-20T14:42:35.875Z,1.70
2022-09-20T14:44:27.697Z,1.60
2022-09-20T14:46:02.130Z,1.40
2022-09-20T14:47:39.976Z,1.40
2022-09-20T14:49:30.963Z,1.77
2022-09-20T14:51:14.172Z,1.60
2022-09-20T14:52:46.849Z,1.50
2022-09-20T14:54:27.041Z,1.50
2022-09-20T14:56:08.772Z,1.50
2022-09-20T14:57:43.460Z,1.47
2022-09-20T14:59:25.828Z,1.50
2022-09-20T15:01:02.989Z,1.23
2022-09-20T15:02:37.134Z,1.20
2022-09-20T15:04:15.420Z,1.27
2022-09-20T15:05:50.841Z,1.40
2022-09-20T15:07:23.838Z,1.20
2022-09-20T15:08:56.528Z,1.30
2022-09-20T15:10:30.300Z,1.07
2022-09-20T15:12:03.832Z,1.10
2022-09-20T15:13:37.862Z,1.10
2022-09-20T15:15:15.789Z,1.00
2022-09-20T15:16:48.747Z,1.20
2022-09-20T15:18:26.175Z,1.00
2022-09-20T15:19:59.424Z,1.20
2022-09-20T15:21:32.262Z,1.07
2022-09-20T15:23:04.945Z,1.20
2022-09-20T15:24:37.745Z,1.03
2022-09-20T15:26:13.187Z,1.10
2022-09-20T15:27:47.403Z,1.17
2022-09-20T15:29:21.891Z,1.20
2022-09-20T15:30:54.690Z,1.30
2022-09-20T15:32:27.405Z,1.30
2022-09-20T15:34:00.077Z,1.40
2022-09-20T15:35:32.765Z,1.37
2022-09-20T15:37:05.559Z,1.33
2022-09-20T15:38:39.033Z,1.30
2022-09-20T15:40:13.029Z,1.60
2022-09-20T15:41:46.870Z,1.30
2022-09-20T15:43:24.177Z,1.50
2022-09-20T15:44:58.322Z,1.13
2022-09-20T15:46:32.118Z,1.13
2022-09-20T15:48:05.552Z,1.40
2022-09-20T15:49:38.217Z,1.30
2022-09-20T15:51:12.350Z,1.40
2022-09-20T15:52:45.038Z,1.60
2022-09-20T15:54:18.763Z,1.20
2022-09-20T15:55:51.438Z,1.23
2022-09-20T15:57:24.212Z,1.40
2022-09-20T15:59:00.165Z,1.53
2022-09-20T16:00:34.181Z,1.30
2022-09-20T16:02:07.315Z,1.53
2022-09-20T16:03:40.001Z,1.47
2022-09-20T16:05:12.729Z,1.53
2022-09-20T16:06:47.275Z,1.37
2022-09-20T16:08:19.945Z,1.40
2022-09-20T16:09:53.022Z,1.40
2022-09-20T16:11:27.847Z,1.27
2022-09-20T16:13:00.567Z,1.80
2022-09-20T16:14:33.273Z,1.53
2022-09-20T16:16:09.955Z,1.40
2022-09-20T16:18:00.117Z,1.40
2022-09-20T16:19:32.796Z,1.97
2022-09-20T16:21:07.284Z,1.50
2022-09-20T16:22:39.954Z,1.43
2022-09-20T16:24:13.341Z,1.60
2022-09-20T16:25:50.423Z,1.60
2022-09-20T16:27:23.117Z,1.73
2022-09-20T16:28:56.410Z,1.47
2022-09-20T16:30:29.446Z,1.70
2022-09-20T16:32:05.313Z,2.10
2022-09-20T16:33:38.113Z,2.07
2022-09-20T16:35:11.166Z,1.80
2022-09-20T16:36:45.324Z,1.90
2022-09-20T16:38:18.126Z,2.00
2022-09-20T16:39:50.840Z,1.67
2022-09-20T16:41:24.759Z,1.80
2022-09-20T16:42:58.538Z,1.97
2022-09-20T16:44:31.948Z,1.70
2022-09-20T16:46:04.475Z,1.80
2022-09-20T16:47:40.978Z,1.70
2022-09-20T16:49:14.163Z,2.37
2022-09-20T16:50:55.089Z,1.90
2022-09-20T16:52:27.825Z,1.90
2022-09-20T16:54:02.919Z,1.80
2022-09-20T16:55:35.588Z,1.57
2022-09-20T16:57:08.299Z,1.50
2022-09-20T16:58:41.955Z,2.07
2022-09-20T17:00:16.483Z,1.77
2022-09-20T17:01:49.972Z,1.93
2022-09-20T17:03:26.990Z,2.07
2022-09-20T17:05:00.171Z,2.03
2022-09-20T17:06:34.079Z,1.83
2022-09-20T17:08:06.752Z,1.90
2022-09-20T17:09:39.450Z,2.30
2022-09-20T17:11:14.962Z,1.60
2022-09-20T17:12:52.274Z,1.63
2022-09-20T17:14:25.683Z,2.47
2022-09-20T17:16:01.489Z,2.30
2022-09-20T17:17:34.528Z,2.13
2022-09-20T17:19:10.943Z,2.40
2022-09-20T17:20:43.929Z,1.90
2022-09-20T17:22:16.642Z,2.17
2022-09-20T17:23:52.059Z,2.00
2022-09-20T17:25:30.115Z,2.30
2022-09-20T17:27:04.052Z,2.27
2022-09-20T17:28:38.691Z,2.13
2022-09-20T17:30:12.365Z,2.50
2022-09-20T17:31:53.151Z,2.17
2022-09-20T17:33:28.385Z,2.10
2022-09-20T17:35:02.381Z,2.00
2022-09-20T17:36:37.976Z,2.10
2022-09-20T17:38:11.872Z,2.37
2022-09-20T17:39:44.543Z,2.40
2022-09-20T17:41:18.599Z,2.80
2022-09-20T17:42:51.696Z,2.60
2022-09-20T17:44:24.432Z,2.70
2022-09-20T17:45:56.696Z,2.47
2022-09-20T17:47:29.373Z,2.80
2022-09-20T17:49:03.510Z,2.23
2022-09-20T17:50:37.522Z,3.13
2022-09-20T17:52:11.133Z,2.80
2022-09-20T17:53:44.088Z,2.53
2022-09-20T17:55:16.821Z,2.90
2022-09-20T17:56:50.987Z,2.50
2022-09-20T17:58:23.297Z,2.00
2022-09-20T17:59:55.967Z,2.20
2022-09-20T18:01:30.105Z,2.27
2022-09-20T18:03:04.845Z,2.27
2022-09-20T18:04:37.774Z,2.50
2022-09-20T18:06:17.029Z,2.03
2022-09-20T18:07:52.848Z,2.37
2022-09-20T18:09:27.641Z,2.80
2022-09-20T18:11:00.317Z,2.93
2022-09-20T18:12:33.148Z,2.77
2022-09-20T18:14:07.933Z,3.53
2022-09-20T18:15:44.399Z,2.90
2022-09-20T18:17:17.102Z,2.67
2022-09-20T18:18:49.788Z,2.30
2022-09-20T18:20:22.447Z,2.37
2022-09-20T18:21:56.446Z,2.37
2022-09-20T18:23:29.463Z,2.07
2022-09-20T18:25:02.169Z,2.17
2022-09-20T18:26:35.678Z,2.17
2022-09-20T18:28:08.378Z,2.53
2022-09-20T18:29:41.056Z,2.57
2022-09-20T18:31:13.780Z,2.20
2022-09-20T18:32:51.207Z,2.17
2022-09-20T18:34:25.347Z,3.63
2022-09-20T18:36:03.236Z,3.40
2022-09-20T18:37:37.726Z,3.97
2022-09-20T18:39:10.604Z,6.13
2022-09-20T18:40:43.861Z,9.87
2022-09-20T18:42:17.135Z,11.07
2022-09-20T18:43:48.927Z,8.57
2022-09-20T18:45:23.021Z,6.17
2022-09-20T18:46:55.761Z,4.40
2022-09-20T18:48:34.160Z,4.40
2022-09-20T18:50:09.603Z,4.30
2022-09-20T18:51:43.117Z,4.17
2022-09-20T18:53:16.175Z,3.57
2022-09-20T18:54:48.865Z,4.30
2022-09-20T18:56:24.739Z,3.37
2022-09-20T18:58:01.345Z,4.17
2022-09-20T18:59:34.685Z,4.37
2022-09-20T19:01:39.702Z,4.63
2022-09-20T19:03:20.403Z,3.90
2022-09-20T19:05:08.326Z,3.57
2022-09-20T19:06:45.485Z,4.20
2022-09-20T19:08:29.967Z,4.00
2022-09-20T19:10:12.947Z,3.60
2022-09-20T19:12:00.704Z,3.50
2022-09-20T19:13:40.807Z,3.17
2022-09-20T19:15:26.990Z,2.90
2022-09-20T19:17:02.076Z,3.20
2022-09-20T19:18:58.784Z,3.23
2022-09-20T19:20:36.053Z,3.30
2022-09-20T19:22:19.925Z,3.00
2022-09-20T19:24:08.829Z,3.33
2022-09-20T19:25:44.153Z,3.20
2022-09-20T19:27:17.157Z,4.00
2022-09-20T19:28:51.350Z,3.30
2022-09-20T19:30:24.735Z,3.13
2022-09-20T19:32:00.700Z,2.87
2022-09-20T19:33:33.824Z,3.53
2022-09-20T19:35:16.083Z,4.33
2022-09-20T19:37:00.660Z,4.30
2022-09-20T19:38:44.006Z,4.00
2022-09-20T19:40:32.826Z,4.07
2022-09-20T19:42:14.748Z,3.70
2022-09-20T19:44:04.261Z,3.60
2022-09-20T19:45:44.581Z,3.73
2022-09-20T19:47:26.960Z,3.20
2022-09-20T19:49:08.976Z,3.70
2022-09-20T19:50:45.255Z,3.50
2022-09-20T19:52:19.149Z,2.80
2022-09-20T19:53:53.421Z,2.90
2022-09-20T19:55:28.127Z,2.50
2022-09-20T19:57:02.613Z,2.23
2022-09-20T19:58:36.060Z,2.80
2022-09-20T20:00:14.445Z,3.00
2022-09-20T20:01:47.536Z,3.50
2022-09-20T20:03:23.453Z,2.73
2022-09-20T20:04:56.562Z,2.80
2022-09-20T20:06:35.443Z,2.47
2022-09-20T20:08:18.356Z,3.00
2022-09-20T20:09:56.880Z,2.47
2022-09-20T20:11:40.075Z,2.20
2022-09-20T20:13:40.483Z,2.20
2022-09-20T20:15:24.900Z,2.50
2022-09-20T20:17:07.557Z,2.20
2022-09-20T20:18:51.217Z,2.60
2022-09-20T20:20:29.877Z,2.67
2022-09-20T20:22:12.285Z,2.73
2022-09-20T20:23:55.474Z,2.27
2022-09-20T20:25:37.468Z,2.60
2022-09-20T20:27:11.497Z,2.70
2022-09-20T20:28:44.249Z,2.30
2022-09-20T20:30:17.048Z,2.50
2022-09-20T20:31:49.804Z,2.50
2022-09-20T20:33:22.534Z,2.43
2022-09-20T20:34:55.217Z,1.90
2022-09-20T20:36:28.019Z,2.43
2022-09-20T20:38:00.741Z,2.20
2022-09-20T20:39:34.055Z,2.30
2022-09-20T20:41:09.390Z,2.60
2022-09-20T20:42:43.764Z,2.43
2022-09-20T20:44:16.431Z,2.20
2022-09-20T20:45:50.899Z,2.00
2022-09-20T20:47:23.682Z,2.80
2022-09-20T20:48:57.249Z,2.80
2022-09-20T20:50:30.318Z,2.67
2022-09-20T20:52:04.860Z,2.80
2022-09-20T20:53:40.007Z,2.30
2022-09-20T20:55:12.737Z,2.27
2022-09-20T20:56:45.488Z,2.10
2022-09-20T20:58:19.517Z,2.27
2022-09-20T20:59:52.916Z,2.40
2022-09-20T21:01:28.473Z,2.37
2022-09-20T21:03:02.881Z,2.50
2022-09-20T21:04:36.903Z,2.57
2022-09-20T21:06:10.153Z,2.10
2022-09-20T21:07:43.616Z,2.40
2022-09-20T21:09:16.452Z,2.50
2022-09-20T21:10:49.160Z,2.70
2022-09-20T21:12:21.868Z,2.33
2022-09-20T21:13:57.997Z,2.60
2022-09-20T21:15:30.897Z,2.70
2022-09-20T21:17:03.611Z,2.93
2022-09-20T21:18:36.748Z,3.07
2022-09-20T21:20:10.931Z,2.90
2022-09-20T21:21:45.294Z,2.60
2022-09-20T21:23:17.000Z,2.37
2022-09-20T21:24:50.745Z,2.60
2022-09-20T21:26:25.156Z,2.20
2022-09-20T21:27:58.333Z,2.20
2022-09-20T21:29:32.629Z,2.13
2022-09-20T21:31:06.431Z,2.43
2022-09-20T21:32:39.162Z,2.17
2022-09-20T21:34:15.242Z,1.93
2022-09-20T21:35:46.972Z,2.13
2022-09-20T21:37:19.643Z,2.00
2022-09-20T21:38:52.558Z,2.00
2022-09-20T21:40:25.418Z,1.97
2022-09-20T21:41:58.869Z,2.60
2022-09-20T21:43:31.095Z,2.90
2022-09-20T21:45:09.067Z,3.23
2022-09-20T21:46:42.885Z,3.70
2022-09-20T21:48:14.588Z,3.30
2022-09-20T21:49:48.048Z,3.40
2022-09-20T21:51:21.523Z,3.30
2022-09-20T21:52:54.281Z,3.10
2022-09-20T21:54:28.491Z,3.10
2022-09-20T21:56:02.159Z,3.17
2022-09-20T21:57:34.833Z,2.80
2022-09-20T21:59:07.889Z,2.17
2022-09-20T22:00:41.954Z,2.43
2022-09-20T22:02:16.844Z,2.70
2022-09-20T22:03:51.703Z,2.20
2022-09-20T22:05:24.492Z,2.10
2022-09-20T22:06:57.165Z,2.20